sensor_id;sensor_type;location;lat;lon;timestamp;temperature;humidity
23160;DHT22;11748;50.844;4.396;2023-06-10T00:00:37;24.00;93.40
23160;DHT22;11748;50.844;4.396;2023-06-10T00:03:03;23.90;93.50
23160;DHT22;11748;50.844;4.396;2023-06-10T00:05:28;23.90;93.40
23160;DHT22;11748;50.844;4.396;2023-06-10T00:07:57;23.90;93.60
23160;DHT22;11748;50.844;4.396;2023-06-10T00:10:23;23.80;93.60
23160;DHT22;11748;50.844;4.396;2023-06-10T00:12:49;23.80;93.60
23160;DHT22;11748;50.844;4.396;2023-06-10T00:15:15;23.70;93.70
23160;DHT22;11748;50.844;4.396;2023-06-10T00:17:40;23.70;93.80
23160;DHT22;11748;50.844;4.396;2023-06-10T00:20:08;23.70;93.80
23160;DHT22;11748;50.844;4.396;2023-06-10T00:22:36;23.70;93.80
23160;DHT22;11748;50.844;4.396;2023-06-10T00:25:03;23.60;93.80
23160;DHT22;11748;50.844;4.396;2023-06-10T00:27:29;23.60;94.10
23160;DHT22;11748;50.844;4.396;2023-06-10T00:30:01;23.60;93.90
23160;DHT22;11748;50.844;4.396;2023-06-10T00:32:27;23.60;93.90
23160;DHT22;11748;50.844;4.396;2023-06-10T00:34:52;23.50;94.00
23160;DHT22;11748;50.844;4.396;2023-06-10T00:37:18;23.50;94.00
23160;DHT22;11748;50.844;4.396;2023-06-10T00:39:43;23.50;94.00
23160;DHT22;11748;50.844;4.396;2023-06-10T00:42:09;23.50;94.10
23160;DHT22;11748;50.844;4.396;2023-06-10T00:44:36;23.50;94.10
23160;DHT22;11748;50.844;4.396;2023-06-10T00:47:01;23.40;94.10
23160;DHT22;11748;50.844;4.396;2023-06-10T00:49:27;23.40;94.10
23160;DHT22;11748;50.844;4.396;2023-06-10T00:51:53;23.40;94.10
23160;DHT22;11748;50.844;4.396;2023-06-10T00:54:19;23.40;94.10
23160;DHT22;11748;50.844;4.396;2023-06-10T00:56:45;23.40;94.10
23160;DHT22;11748;50.844;4.396;2023-06-10T00:59:12;23.30;94.10
23160;DHT22;11748;50.844;4.396;2023-06-10T01:01:41;23.30;94.10
23160;DHT22;11748;50.844;4.396;2023-06-10T01:04:08;23.30;94.10
23160;DHT22;11748;50.844;4.396;2023-06-10T01:12:12;23.20;94.10
23160;DHT22;11748;50.844;4.396;2023-06-10T01:14:39;23.20;94.10
23160;DHT22;11748;50.844;4.396;2023-06-10T01:17:10;23.10;94.10
23160;DHT22;11748;50.844;4.396;2023-06-10T01:19:36;23.10;94.20
23160;DHT22;11748;50.844;4.396;2023-06-10T01:22:02;23.10;94.20
23160;DHT22;11748;50.844;4.396;2023-06-10T01:24:28;23.10;94.20
23160;DHT22;11748;50.844;4.396;2023-06-10T01:27:00;23.00;94.30
23160;DHT22;11748;50.844;4.396;2023-06-10T01:29:31;23.10;94.20
23160;DHT22;11748;50.844;4.396;2023-06-10T01:32:03;23.00;94.20
23160;DHT22;11748;50.844;4.396;2023-06-10T01:34:31;23.00;94.20
23160;DHT22;11748;50.844;4.396;2023-06-10T01:36:58;23.00;94.20
23160;DHT22;11748;50.844;4.396;2023-06-10T01:39:24;23.00;94.20
23160;DHT22;11748;50.844;4.396;2023-06-10T01:41:52;23.00;94.30
23160;DHT22;11748;50.844;4.396;2023-06-10T01:44:22;23.00;94.60
23160;DHT22;11748;50.844;4.396;2023-06-10T01:46:48;22.90;94.30
23160;DHT22;11748;50.844;4.396;2023-06-10T01:49:14;22.90;94.30
23160;DHT22;11748;50.844;4.396;2023-06-10T01:51:39;22.90;94.30
23160;DHT22;11748;50.844;4.396;2023-06-10T01:54:05;22.90;94.70
23160;DHT22;11748;50.844;4.396;2023-06-10T01:56:32;22.90;94.40
23160;DHT22;11748;50.844;4.396;2023-06-10T01:58:58;22.80;94.40
23160;DHT22;11748;50.844;4.396;2023-06-10T02:01:26;22.80;94.50
23160;DHT22;11748;50.844;4.396;2023-06-10T02:03:52;22.80;94.50
23160;DHT22;11748;50.844;4.396;2023-06-10T02:06:18;22.70;94.50
23160;DHT22;11748;50.844;4.396;2023-06-10T02:08:44;22.80;94.60
23160;DHT22;11748;50.844;4.396;2023-06-10T02:11:09;22.70;94.50
23160;DHT22;11748;50.844;4.396;2023-06-10T02:13:35;22.70;94.90
23160;DHT22;11748;50.844;4.396;2023-06-10T02:16:01;22.60;94.60
23160;DHT22;11748;50.844;4.396;2023-06-10T02:18:28;22.60;94.70
23160;DHT22;11748;50.844;4.396;2023-06-10T02:20:54;22.60;94.70
23160;DHT22;11748;50.844;4.396;2023-06-10T02:23:20;22.60;94.70
23160;DHT22;11748;50.844;4.396;2023-06-10T02:25:45;22.70;94.70
23160;DHT22;11748;50.844;4.396;2023-06-10T02:28:12;22.60;94.70
23160;DHT22;11748;50.844;4.396;2023-06-10T02:30:42;22.60;94.80
23160;DHT22;11748;50.844;4.396;2023-06-10T02:33:08;22.50;94.80
23160;DHT22;11748;50.844;4.396;2023-06-10T02:35:38;22.50;94.90
23160;DHT22;11748;50.844;4.396;2023-06-10T02:38:03;22.50;94.90
23160;DHT22;11748;50.844;4.396;2023-06-10T02:40:29;22.40;95.00
23160;DHT22;11748;50.844;4.396;2023-06-10T02:42:55;22.40;95.10
23160;DHT22;11748;50.844;4.396;2023-06-10T02:45:20;22.40;95.10
23160;DHT22;11748;50.844;4.396;2023-06-10T02:47:46;22.40;95.20
23160;DHT22;11748;50.844;4.396;2023-06-10T02:50:11;22.30;95.20
23160;DHT22;11748;50.844;4.396;2023-06-10T02:52:37;22.30;95.30
23160;DHT22;11748;50.844;4.396;2023-06-10T02:55:03;22.30;95.20
23160;DHT22;11748;50.844;4.396;2023-06-10T02:57:30;22.30;95.30
23160;DHT22;11748;50.844;4.396;2023-06-10T02:59:55;22.30;95.30
23160;DHT22;11748;50.844;4.396;2023-06-10T03:02:21;22.30;95.30
23160;DHT22;11748;50.844;4.396;2023-06-10T03:04:47;22.30;95.40
23160;DHT22;11748;50.844;4.396;2023-06-10T03:07:13;22.30;95.40
23160;DHT22;11748;50.844;4.396;2023-06-10T03:09:39;22.20;95.50
23160;DHT22;11748;50.844;4.396;2023-06-10T03:12:05;22.20;95.50
23160;DHT22;11748;50.844;4.396;2023-06-10T03:14:31;22.20;95.50
23160;DHT22;11748;50.844;4.396;2023-06-10T03:16:57;22.20;95.50
23160;DHT22;11748;50.844;4.396;2023-06-10T03:19:22;22.20;95.60
23160;DHT22;11748;50.844;4.396;2023-06-10T03:21:50;22.10;95.60
23160;DHT22;11748;50.844;4.396;2023-06-10T03:24:20;22.10;95.70
23160;DHT22;11748;50.844;4.396;2023-06-10T03:26:45;22.10;95.80
23160;DHT22;11748;50.844;4.396;2023-06-10T03:29:11;22.00;95.80
23160;DHT22;11748;50.844;4.396;2023-06-10T03:31:37;22.00;95.80
23160;DHT22;11748;50.844;4.396;2023-06-10T03:34:04;22.00;95.90
23160;DHT22;11748;50.844;4.396;2023-06-10T03:36:30;22.00;96.00
23160;DHT22;11748;50.844;4.396;2023-06-10T03:38:56;22.00;96.00
23160;DHT22;11748;50.844;4.396;2023-06-10T03:41:22;22.00;96.10
23160;DHT22;11748;50.844;4.396;2023-06-10T03:43:48;21.90;96.10
23160;DHT22;11748;50.844;4.396;2023-06-10T03:46:14;21.80;96.50
23160;DHT22;11748;50.844;4.396;2023-06-10T03:48:40;21.90;96.20
23160;DHT22;11748;50.844;4.396;2023-06-10T03:51:06;21.80;96.30
23160;DHT22;11748;50.844;4.396;2023-06-10T03:53:31;21.90;96.30
23160;DHT22;11748;50.844;4.396;2023-06-10T03:55:57;21.90;96.30
23160;DHT22;11748;50.844;4.396;2023-06-10T03:58:23;21.80;96.40
23160;DHT22;11748;50.844;4.396;2023-06-10T04:00:48;21.80;96.50
23160;DHT22;11748;50.844;4.396;2023-06-10T04:03:14;21.80;96.50
23160;DHT22;11748;50.844;4.396;2023-06-10T04:05:41;21.80;96.50
23160;DHT22;11748;50.844;4.396;2023-06-10T04:08:07;21.80;96.50
23160;DHT22;11748;50.844;4.396;2023-06-10T04:10:33;21.80;96.60
23160;DHT22;11748;50.844;4.396;2023-06-10T04:12:59;21.70;96.60
23160;DHT22;11748;50.844;4.396;2023-06-10T04:15:25;21.80;96.70
23160;DHT22;11748;50.844;4.396;2023-06-10T04:17:50;21.70;96.70
23160;DHT22;11748;50.844;4.396;2023-06-10T04:20:16;21.70;96.80
23160;DHT22;11748;50.844;4.396;2023-06-10T04:22:42;21.70;96.80
23160;DHT22;11748;50.844;4.396;2023-06-10T04:25:09;21.70;96.90
23160;DHT22;11748;50.844;4.396;2023-06-10T04:27:34;21.70;96.90
23160;DHT22;11748;50.844;4.396;2023-06-10T04:30:00;21.70;96.90
23160;DHT22;11748;50.844;4.396;2023-06-10T04:32:26;21.70;96.90
23160;DHT22;11748;50.844;4.396;2023-06-10T04:34:52;21.70;97.00
23160;DHT22;11748;50.844;4.396;2023-06-10T04:37:17;21.70;97.10
23160;DHT22;11748;50.844;4.396;2023-06-10T04:39:43;21.70;97.10
23160;DHT22;11748;50.844;4.396;2023-06-10T04:42:09;21.70;97.10
23160;DHT22;11748;50.844;4.396;2023-06-10T04:44:34;21.70;97.10
23160;DHT22;11748;50.844;4.396;2023-06-10T04:47:00;21.70;97.20
23160;DHT22;11748;50.844;4.396;2023-06-10T04:49:26;21.70;97.20
23160;DHT22;11748;50.844;4.396;2023-06-10T04:51:51;21.70;97.20
23160;DHT22;11748;50.844;4.396;2023-06-10T04:54:17;21.70;97.20
23160;DHT22;11748;50.844;4.396;2023-06-10T04:56:42;21.70;97.30
23160;DHT22;11748;50.844;4.396;2023-06-10T04:59:08;21.70;97.20
23160;DHT22;11748;50.844;4.396;2023-06-10T05:01:34;21.70;97.30
23160;DHT22;11748;50.844;4.396;2023-06-10T05:03:59;21.70;97.30
23160;DHT22;11748;50.844;4.396;2023-06-10T05:06:25;21.70;97.40
23160;DHT22;11748;50.844;4.396;2023-06-10T05:08:50;21.80;97.30
23160;DHT22;11748;50.844;4.396;2023-06-10T05:11:16;21.90;97.20
23160;DHT22;11748;50.844;4.396;2023-06-10T05:13:42;21.90;97.10
23160;DHT22;11748;50.844;4.396;2023-06-10T05:16:09;21.90;97.20
23160;DHT22;11748;50.844;4.396;2023-06-10T05:18:35;21.90;97.20
23160;DHT22;11748;50.844;4.396;2023-06-10T05:21:01;22.00;97.20
23160;DHT22;11748;50.844;4.396;2023-06-10T05:23:27;22.10;97.00
23160;DHT22;11748;50.844;4.396;2023-06-10T05:25:53;22.10;96.90
23160;DHT22;11748;50.844;4.396;2023-06-10T05:28:19;22.10;97.10
23160;DHT22;11748;50.844;4.396;2023-06-10T05:30:45;22.10;97.10
23160;DHT22;11748;50.844;4.396;2023-06-10T05:33:10;22.20;96.90
23160;DHT22;11748;50.844;4.396;2023-06-10T05:35:37;22.10;97.00
23160;DHT22;11748;50.844;4.396;2023-06-10T05:38:02;22.20;96.90
23160;DHT22;11748;50.844;4.396;2023-06-10T05:40:28;22.30;97.00
23160;DHT22;11748;50.844;4.396;2023-06-10T05:42:54;22.30;97.00
23160;DHT22;11748;50.844;4.396;2023-06-10T05:45:19;22.30;97.00
23160;DHT22;11748;50.844;4.396;2023-06-10T05:47:48;22.40;97.00
23160;DHT22;11748;50.844;4.396;2023-06-10T05:50:14;22.50;97.10
23160;DHT22;11748;50.844;4.396;2023-06-10T05:52:40;22.50;97.40
23160;DHT22;11748;50.844;4.396;2023-06-10T05:55:07;22.50;97.10
23160;DHT22;11748;50.844;4.396;2023-06-10T05:57:32;22.60;97.10
23160;DHT22;11748;50.844;4.396;2023-06-10T05:59:58;22.60;96.90
23160;DHT22;11748;50.844;4.396;2023-06-10T06:02:24;22.70;96.90
23160;DHT22;11748;50.844;4.396;2023-06-10T06:04:50;22.70;96.70
23160;DHT22;11748;50.844;4.396;2023-06-10T06:07:16;22.80;96.70
23160;DHT22;11748;50.844;4.396;2023-06-10T06:09:41;22.90;96.60
23160;DHT22;11748;50.844;4.396;2023-06-10T06:12:07;23.40;96.60
23160;DHT22;11748;50.844;4.396;2023-06-10T06:14:37;24.60;95.20
23160;DHT22;11748;50.844;4.396;2023-06-10T06:17:04;26.10;93.60
23160;DHT22;11748;50.844;4.396;2023-06-10T06:19:30;27.40;92.30
23160;DHT22;11748;50.844;4.396;2023-06-10T06:21:55;28.30;91.20
23160;DHT22;11748;50.844;4.396;2023-06-10T06:24:21;29.10;90.50
23160;DHT22;11748;50.844;4.396;2023-06-10T06:26:47;29.80;89.70
23160;DHT22;11748;50.844;4.396;2023-06-10T06:29:12;30.10;88.50
23160;DHT22;11748;50.844;4.396;2023-06-10T06:31:38;30.30;88.20
23160;DHT22;11748;50.844;4.396;2023-06-10T06:34:03;30.10;87.60
23160;DHT22;11748;50.844;4.396;2023-06-10T06:36:29;29.80;88.00
23160;DHT22;11748;50.844;4.396;2023-06-10T06:38:55;29.40;89.00
23160;DHT22;11748;50.844;4.396;2023-06-10T06:41:21;28.90;90.00
23160;DHT22;11748;50.844;4.396;2023-06-10T06:43:47;28.20;90.40
23160;DHT22;11748;50.844;4.396;2023-06-10T06:46:13;27.70;90.90
23160;DHT22;11748;50.844;4.396;2023-06-10T06:48:39;27.20;91.50
23160;DHT22;11748;50.844;4.396;2023-06-10T06:51:04;26.90;91.70
23160;DHT22;11748;50.844;4.396;2023-06-10T06:53:30;26.60;92.10
23160;DHT22;11748;50.844;4.396;2023-06-10T06:55:55;26.40;92.30
23160;DHT22;11748;50.844;4.396;2023-06-10T06:58:21;26.20;92.60
23160;DHT22;11748;50.844;4.396;2023-06-10T07:00:47;26.00;92.70
23160;DHT22;11748;50.844;4.396;2023-06-10T07:03:13;25.90;92.70
23160;DHT22;11748;50.844;4.396;2023-06-10T07:05:38;25.80;92.70
23160;DHT22;11748;50.844;4.396;2023-06-10T07:08:04;25.80;93.00
23160;DHT22;11748;50.844;4.396;2023-06-10T07:10:30;25.70;92.90
23160;DHT22;11748;50.844;4.396;2023-06-10T07:12:55;25.60;93.10
23160;DHT22;11748;50.844;4.396;2023-06-10T07:15:21;25.60;93.40
23160;DHT22;11748;50.844;4.396;2023-06-10T07:17:46;25.60;93.40
23160;DHT22;11748;50.844;4.396;2023-06-10T07:20:12;25.60;93.30
23160;DHT22;11748;50.844;4.396;2023-06-10T07:22:40;25.70;93.40
23160;DHT22;11748;50.844;4.396;2023-06-10T07:25:06;25.80;93.20
23160;DHT22;11748;50.844;4.396;2023-06-10T07:27:32;25.80;93.10
23160;DHT22;11748;50.844;4.396;2023-06-10T07:29:57;25.80;93.10
23160;DHT22;11748;50.844;4.396;2023-06-10T07:32:23;25.80;93.00
23160;DHT22;11748;50.844;4.396;2023-06-10T07:34:50;25.90;92.80
23160;DHT22;11748;50.844;4.396;2023-06-10T07:37:16;25.90;92.80
23160;DHT22;11748;50.844;4.396;2023-06-10T07:39:41;25.90;92.80
23160;DHT22;11748;50.844;4.396;2023-06-10T07:42:08;26.10;92.60
23160;DHT22;11748;50.844;4.396;2023-06-10T07:44:34;26.00;92.60
23160;DHT22;11748;50.844;4.396;2023-06-10T07:46:59;26.00;92.70
23160;DHT22;11748;50.844;4.396;2023-06-10T07:49:25;26.10;92.50
23160;DHT22;11748;50.844;4.396;2023-06-10T07:51:53;26.20;92.30
23160;DHT22;11748;50.844;4.396;2023-06-10T07:54:19;26.30;92.10
23160;DHT22;11748;50.844;4.396;2023-06-10T07:56:45;26.40;92.10
23160;DHT22;11748;50.844;4.396;2023-06-10T07:59:10;26.40;92.20
23160;DHT22;11748;50.844;4.396;2023-06-10T08:01:36;26.40;92.30
23160;DHT22;11748;50.844;4.396;2023-06-10T08:04:03;26.40;92.10
23160;DHT22;11748;50.844;4.396;2023-06-10T08:06:29;26.40;92.00
23160;DHT22;11748;50.844;4.396;2023-06-10T08:08:55;26.50;92.30
23160;DHT22;11748;50.844;4.396;2023-06-10T08:11:20;26.50;92.00
23160;DHT22;11748;50.844;4.396;2023-06-10T08:13:46;26.60;92.10
23160;DHT22;11748;50.844;4.396;2023-06-10T08:16:12;26.70;91.80
23160;DHT22;11748;50.844;4.396;2023-06-10T08:18:37;26.70;92.00
23160;DHT22;11748;50.844;4.396;2023-06-10T08:21:03;26.70;92.10
23160;DHT22;11748;50.844;4.396;2023-06-10T08:23:28;26.80;91.30
23160;DHT22;11748;50.844;4.396;2023-06-10T08:25:54;26.70;91.70
23160;DHT22;11748;50.844;4.396;2023-06-10T08:28:19;26.70;91.80
23160;DHT22;11748;50.844;4.396;2023-06-10T08:30:45;26.70;91.50
23160;DHT22;11748;50.844;4.396;2023-06-10T08:33:11;26.80;91.20
23160;DHT22;11748;50.844;4.396;2023-06-10T08:35:36;26.70;91.10
23160;DHT22;11748;50.844;4.396;2023-06-10T08:38:02;26.70;91.40
23160;DHT22;11748;50.844;4.396;2023-06-10T08:40:27;26.90;91.30
23160;DHT22;11748;50.844;4.396;2023-06-10T08:43:03;27.00;91.20
23160;DHT22;11748;50.844;4.396;2023-06-10T08:45:31;27.00;90.60
23160;DHT22;11748;50.844;4.396;2023-06-10T08:47:57;27.00;90.80
23160;DHT22;11748;50.844;4.396;2023-06-10T08:50:24;27.00;90.80
23160;DHT22;11748;50.844;4.396;2023-06-10T08:52:54;27.00;91.00
23160;DHT22;11748;50.844;4.396;2023-06-10T08:55:42;27.10;90.70
23160;DHT22;11748;50.844;4.396;2023-06-10T08:58:07;27.20;90.50
23160;DHT22;11748;50.844;4.396;2023-06-10T09:00:34;27.30;90.70
23160;DHT22;11748;50.844;4.396;2023-06-10T09:03:00;27.30;90.40
23160;DHT22;11748;50.844;4.396;2023-06-10T09:05:27;27.40;90.30
23160;DHT22;11748;50.844;4.396;2023-06-10T09:07:57;27.50;90.00
23160;DHT22;11748;50.844;4.396;2023-06-10T09:10:24;27.50;90.30
23160;DHT22;11748;50.844;4.396;2023-06-10T09:12:50;27.50;90.60
23160;DHT22;11748;50.844;4.396;2023-06-10T09:15:16;27.60;90.50
23160;DHT22;11748;50.844;4.396;2023-06-10T09:17:43;27.60;90.60
23160;DHT22;11748;50.844;4.396;2023-06-10T09:20:09;27.60;90.60
23160;DHT22;11748;50.844;4.396;2023-06-10T09:22:35;27.70;90.60
23160;DHT22;11748;50.844;4.396;2023-06-10T09:25:05;27.80;90.60
23160;DHT22;11748;50.844;4.396;2023-06-10T09:27:32;27.80;90.00
23160;DHT22;11748;50.844;4.396;2023-06-10T09:29:58;27.80;89.50
23160;DHT22;11748;50.844;4.396;2023-06-10T09:32:24;28.00;89.60
23160;DHT22;11748;50.844;4.396;2023-06-10T09:34:51;27.90;90.00
23160;DHT22;11748;50.844;4.396;2023-06-10T09:37:21;27.70;90.00
23160;DHT22;11748;50.844;4.396;2023-06-10T09:40:06;27.90;89.80
23160;DHT22;11748;50.844;4.396;2023-06-10T09:42:35;28.10;88.70
23160;DHT22;11748;50.844;4.396;2023-06-10T09:45:02;28.20;88.50
23160;DHT22;11748;50.844;4.396;2023-06-10T09:47:28;28.30;89.30
23160;DHT22;11748;50.844;4.396;2023-06-10T09:49:53;28.40;89.50
23160;DHT22;11748;50.844;4.396;2023-06-10T09:52:27;28.50;88.30
23160;DHT22;11748;50.844;4.396;2023-06-10T09:54:54;28.60;87.90
23160;DHT22;11748;50.844;4.396;2023-06-10T09:57:23;28.60;86.00
23160;DHT22;11748;50.844;4.396;2023-06-10T09:59:52;28.60;86.30
23160;DHT22;11748;50.844;4.396;2023-06-10T10:02:19;28.60;87.20
23160;DHT22;11748;50.844;4.396;2023-06-10T10:04:45;28.70;87.20
23160;DHT22;11748;50.844;4.396;2023-06-10T10:07:11;28.80;85.70
23160;DHT22;11748;50.844;4.396;2023-06-10T10:09:41;28.90;86.30
23160;DHT22;11748;50.844;4.396;2023-06-10T10:12:15;29.00;86.00
23160;DHT22;11748;50.844;4.396;2023-06-10T10:14:46;29.00;85.70
23160;DHT22;11748;50.844;4.396;2023-06-10T10:17:14;29.10;85.50
23160;DHT22;11748;50.844;4.396;2023-06-10T10:19:46;29.20;85.20
23160;DHT22;11748;50.844;4.396;2023-06-10T10:22:26;29.20;83.90
23160;DHT22;11748;50.844;4.396;2023-06-10T10:25:00;29.20;83.10
23160;DHT22;11748;50.844;4.396;2023-06-10T10:27:28;29.30;82.40
23160;DHT22;11748;50.844;4.396;2023-06-10T10:29:58;29.40;82.80
23160;DHT22;11748;50.844;4.396;2023-06-10T10:32:45;29.50;83.40
23160;DHT22;11748;50.844;4.396;2023-06-10T10:35:21;29.40;83.40
23160;DHT22;11748;50.844;4.396;2023-06-10T10:37:53;29.60;82.40
23160;DHT22;11748;50.844;4.396;2023-06-10T10:40:23;29.70;81.80
23160;DHT22;11748;50.844;4.396;2023-06-10T10:42:50;29.80;82.10
23160;DHT22;11748;50.844;4.396;2023-06-10T10:45:16;29.90;80.90
23160;DHT22;11748;50.844;4.396;2023-06-10T10:47:45;30.00;79.70
23160;DHT22;11748;50.844;4.396;2023-06-10T10:50:16;30.10;80.30
23160;DHT22;11748;50.844;4.396;2023-06-10T10:53:01;30.00;80.20
23160;DHT22;11748;50.844;4.396;2023-06-10T10:55:27;30.00;80.10
23160;DHT22;11748;50.844;4.396;2023-06-10T10:57:59;30.10;78.70
23160;DHT22;11748;50.844;4.396;2023-06-10T11:00:43;30.20;79.80
23160;DHT22;11748;50.844;4.396;2023-06-10T11:03:14;30.30;78.20
23160;DHT22;11748;50.844;4.396;2023-06-10T11:05:48;30.40;77.80
23160;DHT22;11748;50.844;4.396;2023-06-10T11:08:15;30.50;77.40
23160;DHT22;11748;50.844;4.396;2023-06-10T11:10:51;30.40;78.10
23160;DHT22;11748;50.844;4.396;2023-06-10T11:13:19;30.60;79.30
23160;DHT22;11748;50.844;4.396;2023-06-10T11:15:47;30.50;78.80
23160;DHT22;11748;50.844;4.396;2023-06-10T11:31:32;30.70;74.00
23160;DHT22;11748;50.844;4.396;2023-06-10T11:34:01;30.60;73.60
23160;DHT22;11748;50.844;4.396;2023-06-10T11:36:28;30.70;74.00
23160;DHT22;11748;50.844;4.396;2023-06-10T11:38:57;30.90;72.90
23160;DHT22;11748;50.844;4.396;2023-06-10T11:41:27;30.90;73.80
23160;DHT22;11748;50.844;4.396;2023-06-10T11:43:53;30.80;74.10
23160;DHT22;11748;50.844;4.396;2023-06-10T11:46:21;30.80;75.00
23160;DHT22;11748;50.844;4.396;2023-06-10T11:48:58;30.90;75.90
23160;DHT22;11748;50.844;4.396;2023-06-10T11:51:28;30.90;76.40
23160;DHT22;11748;50.844;4.396;2023-06-10T11:53:54;31.00;74.00
23160;DHT22;11748;50.844;4.396;2023-06-10T11:56:24;31.10;73.50
23160;DHT22;11748;50.844;4.396;2023-06-10T11:59:02;31.10;72.70
23160;DHT22;11748;50.844;4.396;2023-06-10T12:01:31;31.20;73.50
23160;DHT22;11748;50.844;4.396;2023-06-10T12:06:26;31.30;73.60
23160;DHT22;11748;50.844;4.396;2023-06-10T12:08:54;31.40;72.70
23160;DHT22;11748;50.844;4.396;2023-06-10T12:11:20;31.50;73.10
23160;DHT22;11748;50.844;4.396;2023-06-10T12:13:47;31.50;73.40
23160;DHT22;11748;50.844;4.396;2023-06-10T12:16:14;31.60;73.40
23160;DHT22;11748;50.844;4.396;2023-06-10T12:18:39;31.70;72.60
23160;DHT22;11748;50.844;4.396;2023-06-10T12:21:24;31.70;72.50
23160;DHT22;11748;50.844;4.396;2023-06-10T12:24:07;31.70;73.00
23160;DHT22;11748;50.844;4.396;2023-06-10T12:26:38;31.70;72.80
23160;DHT22;11748;50.844;4.396;2023-06-10T12:29:21;31.80;72.10
23160;DHT22;11748;50.844;4.396;2023-06-10T12:31:55;31.80;72.90
23160;DHT22;11748;50.844;4.396;2023-06-10T12:34:29;31.90;72.40
23160;DHT22;11748;50.844;4.396;2023-06-10T12:36:54;32.00;72.80
23160;DHT22;11748;50.844;4.396;2023-06-10T12:39:20;32.10;72.60
23160;DHT22;11748;50.844;4.396;2023-06-10T12:41:49;32.30;71.90
23160;DHT22;11748;50.844;4.396;2023-06-10T12:44:15;32.10;71.80
23160;DHT22;11748;50.844;4.396;2023-06-10T12:46:40;32.00;71.30
23160;DHT22;11748;50.844;4.396;2023-06-10T12:49:06;32.00;71.10
23160;DHT22;11748;50.844;4.396;2023-06-10T12:51:32;32.00;71.90
23160;DHT22;11748;50.844;4.396;2023-06-10T12:53:57;32.00;72.10
23160;DHT22;11748;50.844;4.396;2023-06-10T12:56:23;31.90;72.40
23160;DHT22;11748;50.844;4.396;2023-06-10T12:58:49;32.00;72.70
23160;DHT22;11748;50.844;4.396;2023-06-10T13:01:15;31.90;72.20
23160;DHT22;11748;50.844;4.396;2023-06-10T13:03:40;32.00;72.30
23160;DHT22;11748;50.844;4.396;2023-06-10T13:06:06;31.90;72.30
23160;DHT22;11748;50.844;4.396;2023-06-10T13:08:32;31.90;72.70
23160;DHT22;11748;50.844;4.396;2023-06-10T13:10:58;32.00;73.00
23160;DHT22;11748;50.844;4.396;2023-06-10T13:13:24;32.00;73.30
23160;DHT22;11748;50.844;4.396;2023-06-10T13:15:51;32.20;73.40
23160;DHT22;11748;50.844;4.396;2023-06-10T13:18:17;32.30;72.80
23160;DHT22;11748;50.844;4.396;2023-06-10T13:20:45;32.50;72.40
23160;DHT22;11748;50.844;4.396;2023-06-10T13:23:11;32.50;71.40
23160;DHT22;11748;50.844;4.396;2023-06-10T13:25:37;32.50;71.70
23160;DHT22;11748;50.844;4.396;2023-06-10T13:28:02;32.50;70.90
23160;DHT22;11748;50.844;4.396;2023-06-10T13:30:28;32.50;70.90
23160;DHT22;11748;50.844;4.396;2023-06-10T13:32:54;32.60;71.00
23160;DHT22;11748;50.844;4.396;2023-06-10T13:35:19;32.70;71.50
23160;DHT22;11748;50.844;4.396;2023-06-10T13:37:45;32.80;70.10
23160;DHT22;11748;50.844;4.396;2023-06-10T13:40:11;32.80;69.60
23160;DHT22;11748;50.844;4.396;2023-06-10T13:42:37;32.80;69.40
23160;DHT22;11748;50.844;4.396;2023-06-10T13:45:03;32.60;69.10
23160;DHT22;11748;50.844;4.396;2023-06-10T13:47:29;32.50;69.40
23160;DHT22;11748;50.844;4.396;2023-06-10T13:49:55;32.50;69.80
23160;DHT22;11748;50.844;4.396;2023-06-10T13:52:20;32.30;70.10
23160;DHT22;11748;50.844;4.396;2023-06-10T13:54:46;32.20;70.10
23160;DHT22;11748;50.844;4.396;2023-06-10T13:57:12;32.20;70.70
23160;DHT22;11748;50.844;4.396;2023-06-10T13:59:37;32.30;70.50
23160;DHT22;11748;50.844;4.396;2023-06-10T14:02:03;32.30;70.20
23160;DHT22;11748;50.844;4.396;2023-06-10T14:04:29;32.40;69.40
23160;DHT22;11748;50.844;4.396;2023-06-10T14:06:54;32.50;70.40
23160;DHT22;11748;50.844;4.396;2023-06-10T14:09:20;32.50;69.30
23160;DHT22;11748;50.844;4.396;2023-06-10T14:11:46;32.40;69.40
23160;DHT22;11748;50.844;4.396;2023-06-10T14:14:12;32.30;69.40
23160;DHT22;11748;50.844;4.396;2023-06-10T14:16:39;32.40;69.40
23160;DHT22;11748;50.844;4.396;2023-06-10T14:19:05;32.30;68.90
23160;DHT22;11748;50.844;4.396;2023-06-10T14:21:30;32.40;69.20
23160;DHT22;11748;50.844;4.396;2023-06-10T14:23:56;32.50;69.10
23160;DHT22;11748;50.844;4.396;2023-06-10T14:26:22;32.50;70.00
23160;DHT22;11748;50.844;4.396;2023-06-10T14:28:48;32.30;70.30
23160;DHT22;11748;50.844;4.396;2023-06-10T14:31:15;32.50;69.60
23160;DHT22;11748;50.844;4.396;2023-06-10T14:33:40;32.50;69.00
23160;DHT22;11748;50.844;4.396;2023-06-10T14:36:09;32.50;69.40
23160;DHT22;11748;50.844;4.396;2023-06-10T14:38:34;32.40;69.50
23160;DHT22;11748;50.844;4.396;2023-06-10T14:41:00;32.50;69.20
23160;DHT22;11748;50.844;4.396;2023-06-10T14:43:25;32.50;69.00
23160;DHT22;11748;50.844;4.396;2023-06-10T14:45:51;32.40;68.40
23160;DHT22;11748;50.844;4.396;2023-06-10T14:48:17;32.40;68.70
23160;DHT22;11748;50.844;4.396;2023-06-10T14:50:42;32.40;68.90
23160;DHT22;11748;50.844;4.396;2023-06-10T14:53:10;32.40;68.80
23160;DHT22;11748;50.844;4.396;2023-06-10T14:55:36;32.20;68.80
23160;DHT22;11748;50.844;4.396;2023-06-10T14:58:01;32.40;68.50
23160;DHT22;11748;50.844;4.396;2023-06-10T15:00:27;32.30;68.50
23160;DHT22;11748;50.844;4.396;2023-06-10T15:02:53;32.30;68.60
23160;DHT22;11748;50.844;4.396;2023-06-10T15:05:21;32.30;68.70
23160;DHT22;11748;50.844;4.396;2023-06-10T15:07:47;32.40;68.50
23160;DHT22;11748;50.844;4.396;2023-06-10T15:10:13;32.20;67.90
23160;DHT22;11748;50.844;4.396;2023-06-10T15:12:38;32.10;68.50
23160;DHT22;11748;50.844;4.396;2023-06-10T15:15:04;31.90;68.80
23160;DHT22;11748;50.844;4.396;2023-06-10T15:17:30;31.90;69.10
23160;DHT22;11748;50.844;4.396;2023-06-10T15:19:55;31.90;69.10
23160;DHT22;11748;50.844;4.396;2023-06-10T15:22:21;31.80;69.10
23160;DHT22;11748;50.844;4.396;2023-06-10T15:24:47;32.00;69.40
23160;DHT22;11748;50.844;4.396;2023-06-10T15:27:12;32.00;69.30
23160;DHT22;11748;50.844;4.396;2023-06-10T15:29:38;32.10;69.30
23160;DHT22;11748;50.844;4.396;2023-06-10T15:32:05;32.20;69.20
23160;DHT22;11748;50.844;4.396;2023-06-10T15:34:31;32.30;68.40
23160;DHT22;11748;50.844;4.396;2023-06-10T15:36:56;32.30;68.50
23160;DHT22;11748;50.844;4.396;2023-06-10T15:39:22;32.30;68.60
23160;DHT22;11748;50.844;4.396;2023-06-10T15:41:49;32.20;69.20
23160;DHT22;11748;50.844;4.396;2023-06-10T15:44:15;32.20;68.60
23160;DHT22;11748;50.844;4.396;2023-06-10T15:46:41;32.20;68.70
23160;DHT22;11748;50.844;4.396;2023-06-10T15:49:07;32.20;68.50